Time;durP1;ratioP1;P1;durP2;ratioP2;P2;SDS_P1;SDS_P2;PMS_P1;PMS_P2;Temp;Humidity;BMP_temperature;BMP_pressure;BME280_temperature;BME280_humidity;BME280_pressure;Samples;Min_cycle;Max_cycle;Signal;HPM_P1;HPM_P2
2023/10/15 00:00:19;;;;;;;4.87;1.90;;;;;;;10.27;100.00;96464.31;5036223;28;20216;-69
2023/10/15 00:02:48;;;;;;;5.00;1.77;;;;;;;10.39;100.00;96449.81;5035893;28;20243;-68
2023/10/15 00:05:17;;;;;;;3.20;1.37;;;;;;;10.32;100.00;96461.19;5035946;28;20205;-69
2023/10/15 00:07:44;;;;;;;1.40;1.20;;;;;;;10.32;100.00;96463.81;5036652;28;20295;-69
2023/10/15 00:10:12;;;;;;;2.00;1.30;;;;;;;10.27;100.00;96468.78;5036032;28;20206;-69
2023/10/15 00:12:39;;;;;;;3.77;1.63;;;;;;;10.18;100.00;96470.59;5035593;28;20326;-68
2023/10/15 00:15:11;;;;;;;3.20;1.30;;;;;;;10.35;100.00;96469.59;5036520;28;20198;-69
2023/10/15 00:17:38;;;;;;;1.80;1.37;;;;;;;10.14;100.00;96468.50;5035738;28;20213;-69
2023/10/15 00:20:10;;;;;;;3.23;1.60;;;;;;;10.32;100.00;96471.72;5036109;28;20295;-68
2023/10/15 00:22:38;;;;;;;3.33;1.50;;;;;;;10.08;100.00;96479.69;5035858;28;20217;-68
2023/10/15 00:25:08;;;;;;;3.00;1.37;;;;;;;10.18;100.00;96483.75;5037036;28;20271;-68
2023/10/15 00:27:35;;;;;;;2.13;1.10;;;;;;;10.08;100.00;96483.16;5035436;28;20223;-68
2023/10/15 00:30:02;;;;;;;8.63;1.87;;;;;;;9.92;100.00;96483.13;5035591;28;20757;-69
2023/10/15 00:32:29;;;;;;;2.73;1.33;;;;;;;10.00;100.00;96482.34;5036256;28;20225;-69
2023/10/15 00:34:56;;;;;;;1.60;1.33;;;;;;;9.89;100.00;96472.13;5036267;28;20205;-68
2023/10/15 00:37:24;;;;;;;2.50;1.47;;;;;;;10.00;100.00;96477.88;5035048;28;20579;-69
2023/10/15 00:39:50;;;;;;;2.10;1.10;;;;;;;9.81;100.00;96472.13;5035678;28;21017;-70
2023/10/15 00:42:17;;;;;;;2.17;1.30;;;;;;;9.83;100.00;96470.97;5035213;28;20215;-69
2023/10/15 00:44:43;;;;;;;5.70;1.33;;;;;;;9.97;100.00;96475.59;5036430;28;20201;-68
2023/10/15 00:47:15;;;;;;;4.30;1.50;;;;;;;9.74;100.00;96471.97;5035340;28;20984;-69
2023/10/15 00:49:42;;;;;;;3.50;1.37;;;;;;;9.68;100.00;96471.81;5036127;28;20675;-69
2023/10/15 00:52:10;;;;;;;2.00;1.23;;;;;;;9.87;100.00;96471.47;5034965;28;20737;-69
2023/10/15 00:54:39;;;;;;;2.07;1.40;;;;;;;9.95;100.00;96467.03;5035723;28;20205;-69
2023/10/15 00:57:25;;;;;;;2.93;1.50;;;;;;;9.82;100.00;96468.50;5035267;28;20209;-69
2023/10/15 00:59:54;;;;;;;8.30;1.37;;;;;;;9.82;100.00;96461.44;5035705;28;20216;-70
2023/10/15 01:02:23;;;;;;;1.80;1.30;;;;;;;9.75;100.00;96455.22;5034957;28;20300;-69
2023/10/15 01:04:52;;;;;;;1.70;1.00;;;;;;;9.93;100.00;96461.09;5035885;28;20205;-69
2023/10/15 01:07:32;;;;;;;1.93;1.23;;;;;;;9.97;100.00;96459.00;5035518;28;20584;-69
2023/10/15 01:10:00;;;;;;;4.70;1.30;;;;;;;10.15;100.00;96452.50;5035085;28;20370;-69
2023/10/15 01:12:32;;;;;;;3.27;1.77;;;;;;;9.94;100.00;96459.28;5035616;28;20240;-69
2023/10/15 01:14:58;;;;;;;1.87;1.23;;;;;;;9.89;100.00;96456.31;5035858;28;20295;-69
2023/10/15 01:17:36;;;;;;;2.80;1.70;;;;;;;10.11;100.00;96455.66;5035948;28;20201;-68
2023/10/15 01:20:07;;;;;;;2.83;1.30;;;;;;;10.21;100.00;96454.47;5039421;28;20234;-69
2023/10/15 01:22:35;;;;;;;2.83;1.47;;;;;;;10.18;100.00;96459.25;5039661;28;20631;-69
2023/10/15 01:25:18;;;;;;;5.63;1.47;;;;;;;10.44;100.00;96452.75;5039701;28;20201;-70
2023/10/15 01:27:45;;;;;;;3.80;1.73;;;;;;;10.24;100.00;96451.50;5039225;28;20207;-69
2023/10/15 01:30:17;;;;;;;3.47;1.43;;;;;;;10.47;100.00;96447.13;5039254;28;20322;-68
2023/10/15 01:32:44;;;;;;;3.13;1.50;;;;;;;10.43;100.00;96445.84;5038828;28;20225;-68
2023/10/15 01:35:14;;;;;;;3.23;1.63;;;;;;;10.47;100.00;96440.03;5039516;28;20197;-69
2023/10/15 01:37:45;;;;;;;3.87;2.13;;;;;;;10.34;100.00;96431.88;5039375;28;20299;-69
2023/10/15 01:40:30;;;;;;;3.77;1.50;;;;;;;10.62;100.00;96430.41;5038481;28;20208;-68
2023/10/15 01:42:57;;;;;;;2.40;1.10;;;;;;;10.53;100.00;96439.34;5039593;28;20212;-69
2023/10/15 01:45:32;;;;;;;2.17;1.30;;;;;;;10.53;100.00;96428.81;5039007;28;20197;-69
2023/10/15 01:48:05;;;;;;;1.77;1.10;;;;;;;10.59;100.00;96414.13;5038884;28;20201;-69
2023/10/15 01:50:41;;;;;;;2.80;1.40;;;;;;;10.56;100.00;96440.84;5038159;28;20205;-68
2023/10/15 01:53:08;;;;;;;1.93;1.47;;;;;;;10.66;100.00;96442.25;5039553;28;20231;-69
2023/10/15 01:55:36;;;;;;;1.47;1.13;;;;;;;10.83;100.00;96433.25;5038890;28;20197;-69
2023/10/15 01:58:04;;;;;;;3.73;1.77;;;;;;;10.80;100.00;96440.72;5038655;28;20201;-69
2023/10/15 02:00:43;;;;;;;1.70;1.37;;;;;;;10.75;100.00;96438.59;5038068;28;20212;-68
2023/10/15 02:03:10;;;;;;;7.00;1.37;;;;;;;10.69;100.00;96441.09;5038052;28;20590;-69
2023/10/15 02:05:41;;;;;;;1.57;1.13;;;;;;;10.69;100.00;96435.81;5036689;28;20297;-69
2023/10/15 02:08:08;;;;;;;2.57;1.40;;;;;;;10.78;100.00;96440.06;5038629;28;20200;-69
2023/10/15 02:10:39;;;;;;;1.77;0.97;;;;;;;10.81;100.00;96437.09;5037936;28;20201;-69
2023/10/15 02:13:05;;;;;;;3.57;1.40;;;;;;;10.80;100.00;96435.44;5038726;28;20229;-69
2023/10/15 02:15:38;;;;;;;2.20;1.47;;;;;;;11.07;100.00;96425.22;5038190;28;20719;-69
2023/10/15 02:18:05;;;;;;;2.57;1.20;;;;;;;11.01;100.00;96428.56;5038174;28;20311;-68
2023/10/15 02:20:43;;;;;;;3.03;1.60;;;;;;;10.83;100.00;96432.44;5037321;28;20288;-69
2023/10/15 02:23:10;;;;;;;1.10;1.00;;;;;;;10.87;100.00;96421.41;5038160;28;20225;-69
2023/10/15 02:25:45;;;;;;;1.03;0.70;;;;;;;11.00;100.00;96427.72;5038079;28;20208;-69
2023/10/15 02:28:12;;;;;;;6.50;1.50;;;;;;;10.91;100.00;96429.75;5037095;28;20718;-69
2023/10/15 02:30:40;;;;;;;1.93;1.20;;;;;;;10.87;100.00;96439.03;5037034;28;20201;-69
2023/10/15 02:33:07;;;;;;;3.80;1.50;;;;;;;10.93;100.00;96433.88;5038059;28;20718;-69
2023/10/15 02:35:39;;;;;;;2.13;1.33;;;;;;;10.91;100.00;96435.03;5037661;28;20198;-69
2023/10/15 02:38:10;;;;;;;1.40;1.07;;;;;;;11.03;100.00;96427.38;5038219;28;20594;-69
2023/10/15 02:40:55;;;;;;;3.17;1.00;;;;;;;11.15;100.00;96423.34;5038308;28;20223;-69
2023/10/15 02:43:24;;;;;;;1.37;0.83;;;;;;;11.11;100.00;96437.88;5037638;28;20217;-69
2023/10/15 02:45:51;;;;;;;1.90;1.10;;;;;;;11.07;100.00;96441.03;5037881;28;20205;-69
2023/10/15 02:48:19;;;;;;;6.20;1.17;;;;;;;11.14;100.00;96436.72;5037506;28;20209;-69
2023/10/15 02:50:58;;;;;;;2.00;1.00;;;;;;;11.02;100.00;96438.94;5037634;28;20913;-69
2023/10/15 02:53:25;;;;;;;2.30;1.10;;;;;;;11.04;100.00;96426.38;5038452;28;20256;-69
2023/10/15 02:55:57;;;;;;;1.40;1.10;;;;;;;11.26;100.00;96417.63;5038230;28;20211;-69
2023/10/15 02:58:27;;;;;;;1.53;1.07;;;;;;;11.18;100.00;96419.53;5036484;28;20198;-69
2023/10/15 03:00:59;;;;;;;1.27;0.97;;;;;;;11.00;100.00;96435.63;5037545;28;20718;-68
2023/10/15 03:03:33;;;;;;;1.90;1.00;;;;;;;11.13;100.00;96429.78;5037710;28;20229;-69
2023/10/15 03:06:01;;;;;;;2.30;1.43;;;;;;;11.03;100.00;96430.00;5037474;28;20214;-69
2023/10/15 03:08:32;;;;;;;1.23;1.10;;;;;;;11.07;100.00;96430.47;5036882;28;20694;-69
2023/10/15 03:11:11;;;;;;;2.83;1.77;;;;;;;11.30;100.00;96426.88;5037721;28;20848;-69
2023/10/15 03:13:45;;;;;;;3.27;1.00;;;;;;;11.02;100.00;96441.56;5037153;28;20228;-70
2023/10/15 03:16:11;;;;;;;3.60;1.17;;;;;;;10.98;100.00;96448.19;5037056;28;20232;-69
2023/10/15 03:18:38;;;;;;;4.70;1.77;;;;;;;11.10;100.00;96441.50;5037035;28;20684;-70
2023/10/15 03:21:14;;;;;;;4.43;2.37;;;;;;;11.02;100.00;96433.66;5037294;28;20232;-69
2023/10/15 03:23:41;;;;;;;2.63;1.47;;;;;;;11.05;100.00;96438.56;5037385;28;20306;-69
2023/10/15 03:26:17;;;;;;;5.10;3.10;;;;;;;11.16;100.00;96432.91;5036833;28;20205;-69
2023/10/15 03:28:45;;;;;;;2.73;1.30;;;;;;;11.10;100.00;96428.31;5036557;28;20259;-69
2023/10/15 03:31:15;;;;;;;1.50;1.07;;;;;;;11.07;100.00;96426.03;5036544;28;20308;-69
2023/10/15 03:33:58;;;;;;;2.00;1.07;;;;;;;11.19;100.00;96421.19;5037088;28;20691;-69
2023/10/15 03:36:26;;;;;;;2.07;0.93;;;;;;;11.19;100.00;96424.63;5036372;28;20201;-68
2023/10/15 03:38:54;;;;;;;1.43;0.87;;;;;;;11.11;100.00;96427.34;5036523;28;20197;-69
2023/10/15 03:41:27;;;;;;;1.83;1.13;;;;;;;11.16;100.00;96432.91;5036781;28;20197;-69
2023/10/15 03:43:53;;;;;;;1.77;1.20;;;;;;;11.12;100.00;96442.13;5036977;28;20220;-68
2023/10/15 03:46:20;;;;;;;2.40;0.80;;;;;;;11.17;100.00;96431.88;5036862;28;20216;-69
2023/10/15 03:48:49;;;;;;;2.83;1.20;;;;;;;11.14;100.00;96440.16;5036269;28;20577;-69
2023/10/15 03:51:20;;;;;;;1.27;1.00;;;;;;;10.90;100.00;96425.50;5036320;28;20232;-69
2023/10/15 03:53:49;;;;;;;2.43;0.93;;;;;;;11.01;100.00;96413.56;5036772;28;20225;-69
2023/10/15 03:56:18;;;;;;;3.10;1.13;;;;;;;11.01;100.00;96421.47;5036856;28;20296;-69
2023/10/15 03:58:46;;;;;;;0.93;0.83;;;;;;;11.27;100.00;96431.66;5035891;28;20734;-69
2023/10/15 04:01:16;;;;;;;3.27;1.00;;;;;;;11.19;100.00;96426.47;5036049;28;20216;-69
2023/10/15 04:03:46;;;;;;;1.27;0.87;;;;;;;11.11;100.00;96422.06;5037467;28;20217;-69
2023/10/15 04:06:13;;;;;;;2.20;1.27;;;;;;;11.07;100.00;96412.03;5036448;28;20298;-69
2023/10/15 04:08:49;;;;;;;1.77;0.90;;;;;;;11.22;100.00;96405.81;5035424;28;20205;-69
2023/10/15 04:11:29;;;;;;;6.10;1.87;;;;;;;10.93;100.00;96408.34;5036457;28;20205;-69
2023/10/15 04:13:57;;;;;;;1.97;1.03;;;;;;;11.29;100.00;96412.03;5035806;28;20421;-69
2023/10/15 04:16:24;;;;;;;2.73;0.87;;;;;;;11.16;100.00;96409.16;5036157;28;20206;-69
2023/10/15 04:18:50;;;;;;;2.20;0.90;;;;;;;11.15;100.00;96414.59;5035868;28;20209;-69
2023/10/15 04:21:17;;;;;;;1.53;0.70;;;;;;;11.19;100.00;96413.28;5036539;28;20201;-70
2023/10/15 04:23:49;;;;;;;1.43;0.80;;;;;;;11.21;100.00;96404.16;5035626;28;21030;-69
2023/10/15 04:26:15;;;;;;;1.10;0.60;;;;;;;11.17;100.00;96408.16;5036080;28;20208;-70
2023/10/15 04:28:42;;;;;;;3.47;0.80;;;;;;;11.14;100.00;96408.50;5035557;28;21063;-69
2023/10/15 04:31:11;;;;;;;1.50;1.03;;;;;;;11.30;100.00;96404.91;5035502;28;20216;-69
2023/10/15 04:33:41;;;;;;;2.03;0.53;;;;;;;11.23;100.00;96410.09;5035963;28;20652;-69
2023/10/15 04:36:09;;;;;;;0.67;0.63;;;;;;;11.17;100.00;96410.78;5035694;28;20197;-69
2023/10/15 04:38:36;;;;;;;1.03;0.70;;;;;;;11.16;100.00;96398.63;5035848;28;20205;-69
2023/10/15 04:41:03;;;;;;;4.20;0.97;;;;;;;11.15;100.00;96396.97;5035373;28;20262;-69
2023/10/15 04:43:40;;;;;;;0.97;0.67;;;;;;;10.97;100.00;96393.81;5035422;28;20914;-70
2023/10/15 04:46:08;;;;;;;1.03;0.60;;;;;;;11.02;100.00;96407.28;5035895;28;20201;-68
2023/10/15 04:48:37;;;;;;;2.07;0.77;;;;;;;11.14;100.00;96408.50;5035497;28;20201;-69
2023/10/15 04:51:11;;;;;;;3.63;1.00;;;;;;;10.93;100.00;96401.41;5035864;28;20201;-69
2023/10/15 04:53:39;;;;;;;3.03;1.00;;;;;;;11.15;100.00;96396.97;5038244;28;20315;-69
2023/10/15 04:56:06;;;;;;;4.17;0.80;;;;;;;11.13;100.00;96392.88;5039496;28;20201;-69
2023/10/15 04:58:32;;;;;;;1.40;0.90;;;;;;;11.01;100.00;96400.38;5039430;28;20209;-69
2023/10/15 05:01:00;;;;;;;1.43;0.80;;;;;;;11.08;100.00;96408.41;5040288;28;20205;-69
2023/10/15 05:03:26;;;;;;;3.83;0.90;;;;;;;11.02;100.00;96402.00;5038412;28;20232;-69
2023/10/15 05:05:59;;;;;;;2.13;0.93;;;;;;;11.24;100.00;96401.19;5039684;28;20208;-69
2023/10/15 05:08:26;;;;;;;5.00;0.97;;;;;;;11.10;100.00;96399.31;5038748;28;20201;-68
2023/10/15 05:10:52;;;;;;;2.03;1.33;;;;;;;11.10;100.00;96394.03;5039655;28;20671;-70
2023/10/15 05:13:20;;;;;;;2.20;0.70;;;;;;;11.25;100.00;96394.09;5039558;28;20225;-70
2023/10/15 05:15:46;;;;;;;1.63;0.80;;;;;;;11.22;100.00;96397.88;5038997;28;20205;-70
2023/10/15 05:18:15;;;;;;;0.80;0.70;;;;;;;11.20;100.00;96391.16;5038869;28;20761;-69
2023/10/15 05:20:41;;;;;;;2.47;0.80;;;;;;;11.05;100.00;96396.38;5040576;28;20205;-69
2023/10/15 05:23:09;;;;;;;1.20;0.80;;;;;;;11.20;100.00;96397.25;5039092;28;20225;-69
2023/10/15 05:25:39;;;;;;;3.97;1.50;;;;;;;10.97;100.00;96409.63;5038926;28;20197;-69
2023/10/15 05:28:06;;;;;;;1.20;0.90;;;;;;;11.14;100.00;96410.34;5039754;28;20211;-69
2023/10/15 05:30:32;;;;;;;2.20;1.17;;;;;;;11.11;100.00;96405.41;5038677;28;20197;-69
2023/10/15 05:33:00;;;;;;;1.17;0.80;;;;;;;11.14;100.00;96405.06;5039462;28;20225;-70
2023/10/15 05:35:27;;;;;;;4.20;1.10;;;;;;;11.27;100.00;96403.47;5039385;28;20829;-69
2023/10/15 05:37:54;;;;;;;1.73;1.07;;;;;;;11.10;100.00;96407.22;5039876;28;20292;-69
2023/10/15 05:40:22;;;;;;;3.20;0.80;;;;;;;11.11;100.00;96408.88;5039130;28;20270;-70
2023/10/15 05:42:49;;;;;;;2.80;1.00;;;;;;;11.05;100.00;96416.66;5039235;28;20734;-70
2023/10/15 05:45:16;;;;;;;1.97;0.90;;;;;;;11.23;100.00;96410.09;5039238;28;20205;-70
2023/10/15 05:47:43;;;;;;;3.13;0.90;;;;;;;11.30;100.00;96416.31;5039069;28;20690;-70
2023/10/15 05:50:13;;;;;;;2.43;1.57;;;;;;;11.44;100.00;96412.88;5038694;28;20201;-70
2023/10/15 05:52:40;;;;;;;3.77;1.80;;;;;;;11.24;100.00;96416.16;5038979;28;20797;-69
2023/10/15 05:55:07;;;;;;;3.13;1.60;;;;;;;11.33;100.00;96420.38;5039431;28;20221;-70
2023/10/15 05:57:36;;;;;;;6.37;2.40;;;;;;;11.46;100.00;96424.09;5038732;28;20201;-70
2023/10/15 06:00:17;;;;;;;3.97;1.93;;;;;;;11.47;100.00;96430.16;5038316;28;20320;-69
2023/10/15 06:02:44;;;;;;;3.03;1.77;;;;;;;11.38;100.00;96428.59;5038311;28;20256;-70
2023/10/15 06:05:13;;;;;;;3.80;1.57;;;;;;;11.69;100.00;96422.25;5038469;28;20204;-70
2023/10/15 06:07:39;;;;;;;1.70;1.10;;;;;;;12.44;100.00;96420.09;5038279;28;20206;-69
2023/10/15 06:10:07;;;;;;;3.37;1.43;;;;;;;12.84;100.00;96417.78;5038411;28;20213;-70
2023/10/15 06:12:35;;;;;;;4.93;1.00;;;;;;;13.07;100.00;96420.28;5038715;28;20223;-70
2023/10/15 06:15:04;;;;;;;3.60;1.50;;;;;;;12.81;100.00;96433.19;5038479;28;20224;-70
2023/10/15 06:17:30;;;;;;;2.67;1.07;;;;;;;12.62;100.00;96433.75;5038305;28;20223;-70
2023/10/15 06:19:57;;;;;;;5.43;1.13;;;;;;;12.26;100.00;96432.06;5038268;28;20663;-69
2023/10/15 06:22:25;;;;;;;3.37;1.53;;;;;;;12.15;100.00;96440.44;5037933;28;20228;-70
2023/10/15 06:24:52;;;;;;;1.00;0.70;;;;;;;12.04;100.00;96437.41;5038668;28;20209;-69
2023/10/15 06:27:18;;;;;;;2.40;1.43;;;;;;;11.99;100.00;96435.34;5037637;28;20832;-69
2023/10/15 06:29:46;;;;;;;4.77;1.20;;;;;;;12.04;100.00;96442.69;5038221;28;20235;-70
2023/10/15 06:32:12;;;;;;;8.47;1.80;;;;;;;11.82;100.00;96440.94;5037804;28;20209;-69
2023/10/15 06:34:39;;;;;;;2.37;1.03;;;;;;;11.73;100.00;96448.09;5038743;28;20225;-70
2023/10/15 06:37:08;;;;;;;6.27;1.13;;;;;;;11.68;100.00;96447.84;5038228;28;20254;-69
2023/10/15 06:39:34;;;;;;;4.83;1.20;;;;;;;11.80;100.00;96442.94;5037231;28;20240;-70
2023/10/15 06:42:01;;;;;;;2.77;1.13;;;;;;;11.65;100.00;96434.19;5037021;28;20707;-70
2023/10/15 06:44:27;;;;;;;4.63;1.10;;;;;;;11.58;100.00;96435.88;5037231;28;20278;-70
2023/10/15 06:46:55;;;;;;;2.83;1.13;;;;;;;11.86;100.00;96447.50;5037678;28;20197;-70
2023/10/15 06:49:21;;;;;;;3.17;0.90;;;;;;;11.63;100.00;96462.56;5036408;28;20570;-70
2023/10/15 06:51:48;;;;;;;6.57;1.77;;;;;;;11.29;100.00;96467.44;5037533;28;20874;-69
2023/10/15 06:54:16;;;;;;;3.83;1.30;;;;;;;11.19;100.00;96495.84;5034266;28;20252;-69
2023/10/15 06:56:42;;;;;;;2.83;1.37;;;;;;;10.97;100.00;96504.56;5037271;28;20690;-69
2023/10/15 06:59:10;;;;;;;3.17;1.13;;;;;;;10.52;100.00;96502.78;5036093;28;20204;-70
2023/10/15 07:01:38;;;;;;;0.73;0.70;;;;;;;10.25;100.00;96497.91;5035972;28;20739;-70
2023/10/15 07:04:07;;;;;;;2.30;0.80;;;;;;;10.41;100.00;96505.75;5036127;28;20350;-71
2023/10/15 07:06:34;;;;;;;2.33;0.70;;;;;;;10.34;100.00;96516.16;5036794;28;20205;-71
2023/10/15 07:09:00;;;;;;;3.40;1.17;;;;;;;10.34;100.00;96518.78;5035088;28;20205;-71
2023/10/15 07:11:27;;;;;;;1.37;0.93;;;;;;;10.33;100.00;96519.81;5037240;28;20209;-71
2023/10/15 07:13:54;;;;;;;3.13;0.97;;;;;;;10.33;100.00;96519.81;5034975;28;20269;-68
2023/10/15 07:16:20;;;;;;;4.33;0.97;;;;;;;10.52;100.00;96506.22;5035383;28;20209;-69
2023/10/15 07:18:47;;;;;;;1.70;0.93;;;;;;;10.73;100.00;96497.75;5036006;28;20602;-69
2023/10/15 07:21:14;;;;;;;1.73;1.23;;;;;;;10.99;100.00;96501.75;5036486;28;20947;-69
2023/10/15 07:23:41;;;;;;;3.43;1.60;;;;;;;10.93;100.00;96505.91;5036015;28;20225;-70
2023/10/15 07:26:08;;;;;;;4.30;1.10;;;;;;;11.04;100.00;96500.22;5037138;28;20201;-69
2023/10/15 07:28:34;;;;;;;2.53;1.20;;;;;;;10.80;100.00;96503.97;5035706;28;20708;-69
2023/10/15 07:31:01;;;;;;;0.80;0.80;;;;;;;10.99;100.00;96496.47;5035388;28;20310;-71
2023/10/15 07:33:27;;;;;;;2.03;1.60;;;;;;;10.83;100.00;96495.72;5036324;28;20724;-69
2023/10/15 07:35:54;;;;;;;1.93;1.03;;;;;;;11.21;100.00;96496.47;5035834;28;20225;-69
2023/10/15 07:38:21;;;;;;;2.97;0.83;;;;;;;11.11;100.00;96498.53;5035237;28;20205;-69
2023/10/15 07:40:48;;;;;;;0.40;0.40;;;;;;;11.05;100.00;96495.78;5036160;28;20694;-69
2023/10/15 07:43:14;;;;;;;0.63;0.40;;;;;;;10.98;100.00;96500.94;5034686;28;20598;-69
2023/10/15 07:45:41;;;;;;;1.30;0.60;;;;;;;11.12;100.00;96496.72;5036222;28;20279;-69
2023/10/15 07:48:08;;;;;;;2.73;1.03;;;;;;;11.21;100.00;96501.75;5035589;28;20216;-69
2023/10/15 07:50:36;;;;;;;1.90;0.90;;;;;;;11.39;100.00;96504.97;5034278;28;20202;-69
2023/10/15 07:53:03;;;;;;;1.00;0.70;;;;;;;11.65;100.00;96500.97;5034815;28;20707;-68
2023/10/15 07:55:31;;;;;;;1.10;0.60;;;;;;;11.73;100.00;96495.63;5035968;28;20402;-69
2023/10/15 07:57:58;;;;;;;2.07;0.50;;;;;;;11.50;100.00;96503.75;5035891;28;20201;-69
2023/10/15 08:00:26;;;;;;;0.87;0.80;;;;;;;11.48;100.00;96514.47;5034895;28;20228;-71
2023/10/15 08:02:57;;;;;;;3.90;1.00;;;;;;;11.72;100.00;96511.66;5033063;28;20793;-69
2023/10/15 08:05:24;;;;;;;0.87;0.70;;;;;;;11.71;100.00;96502.91;5034502;28;20498;-69
2023/10/15 08:07:52;;;;;;;0.63;0.53;;;;;;;11.57;100.00;96518.72;5035765;28;20232;-68
2023/10/15 08:10:20;;;;;;;0.77;0.67;;;;;;;11.82;100.00;96512.22;5034366;28;20208;-70
2023/10/15 08:12:49;;;;;;;0.67;0.50;;;;;;;11.88;100.00;96512.34;5035429;28;20225;-69
2023/10/15 08:15:16;;;;;;;1.23;0.70;;;;;;;11.83;100.00;96516.53;5034500;28;20641;-69
2023/10/15 08:17:42;;;;;;;0.50;0.40;;;;;;;11.58;100.00;96525.63;5034926;28;20201;-69
2023/10/15 08:20:10;;;;;;;0.80;0.77;;;;;;;11.55;100.00;96521.50;5034281;28;20208;-69
2023/10/15 08:22:36;;;;;;;2.13;0.70;;;;;;;11.62;100.00;96518.97;5035112;28;20221;-69
2023/10/15 08:25:03;;;;;;;0.60;0.53;;;;;;;11.90;100.00;96509.53;5035516;28;20209;-69
2023/10/15 08:27:30;;;;;;;0.87;0.60;;;;;;;11.87;100.00;96509.88;5034695;28;20205;-69
2023/10/15 08:29:57;;;;;;;0.50;0.50;;;;;;;12.39;100.00;96514.97;5034692;28;20201;-69
2023/10/15 08:32:26;;;;;;;1.17;0.63;;;;;;;12.44;100.00;96512.63;5033760;28;20598;-69
2023/10/15 08:34:53;;;;;;;1.43;0.57;;;;;;;12.36;100.00;96507.41;5034101;28;20545;-69
2023/10/15 08:37:20;;;;;;;1.40;0.90;;;;;;;12.40;100.00;96513.97;5032867;28;20205;-69
2023/10/15 08:39:46;;;;;;;2.40;0.97;;;;;;;12.54;100.00;96505.25;5034571;28;20229;-70
2023/10/15 08:42:14;;;;;;;0.70;0.60;;;;;;;12.71;100.00;96511.97;5034069;28;20300;-69
2023/10/15 08:44:41;;;;;;;1.03;0.90;;;;;;;12.37;100.00;96514.34;5032947;28;20204;-70
2023/10/15 08:47:12;;;;;;;0.97;0.73;;;;;;;12.63;100.00;96517.38;5032813;28;20749;-71
2023/10/15 08:49:46;;;;;;;1.50;0.90;;;;;;;12.52;100.00;96519.63;5033271;28;20213;-69
2023/10/15 08:52:15;;;;;;;3.20;1.20;;;;;;;12.20;100.00;96523.41;5034068;28;20631;-69
2023/10/15 08:54:43;;;;;;;1.30;0.90;;;;;;;12.25;100.00;96521.06;5034141;28;20252;-69
2023/10/15 08:57:12;;;;;;;1.47;1.03;;;;;;;12.05;100.00;96520.94;5034569;28;20230;-71
2023/10/15 08:59:39;;;;;;;2.83;1.10;;;;;;;11.78;100.00;96521.50;5033864;28;20211;-71
2023/10/15 09:02:06;;;;;;;2.10;1.30;;;;;;;11.72;100.00;96517.78;5034621;28;20221;-70
2023/10/15 09:04:34;;;;;;;2.27;0.93;;;;;;;11.92;100.00;96515.47;5034551;28;20224;-69
2023/10/15 09:07:02;;;;;;;1.63;1.03;;;;;;;11.98;100.00;96527.97;5034945;28;20201;-69
2023/10/15 09:09:28;;;;;;;1.10;0.90;;;;;;;11.70;100.00;96534.78;5034207;28;20205;-69
2023/10/15 09:11:55;;;;;;;1.03;0.70;;;;;;;11.73;100.00;96529.94;5035493;28;20202;-69
2023/10/15 09:14:37;;;;;;;1.27;0.93;;;;;;;11.80;100.00;96532.69;5033930;28;20732;-69
2023/10/15 09:17:06;;;;;;;1.87;0.90;;;;;;;11.82;100.00;96515.69;5034802;28;20835;-69
2023/10/15 09:19:34;;;;;;;3.40;1.03;;;;;;;12.21;100.00;96511.06;5033843;28;20288;-70
2023/10/15 09:22:01;;;;;;;2.80;1.50;;;;;;;11.85;100.00;96514.50;5034246;28;20549;-69
2023/10/15 09:24:27;;;;;;;2.63;1.47;;;;;;;11.92;100.00;96516.25;5034664;28;20230;-69
2023/10/15 09:26:54;;;;;;;1.77;1.00;;;;;;;11.87;100.00;96515.16;5034436;28;20992;-69
2023/10/15 09:29:21;;;;;;;2.00;1.07;;;;;;;11.85;100.00;96506.59;5034382;28;20671;-69
2023/10/15 09:31:49;;;;;;;1.57;1.10;;;;;;;11.93;100.00;96514.47;5034890;28;20205;-69
2023/10/15 09:34:15;;;;;;;2.10;1.17;;;;;;;11.77;100.00;96519.88;5034825;28;20820;-69
2023/10/15 09:36:43;;;;;;;2.47;1.27;;;;;;;12.00;100.00;96518.81;5034225;28;20225;-69
2023/10/15 09:39:12;;;;;;;2.83;1.30;;;;;;;12.02;100.00;96514.19;5035657;28;20623;-69
2023/10/15 09:41:41;;;;;;;2.20;1.13;;;;;;;12.08;100.00;96518.78;5038811;28;20205;-69
2023/10/15 09:44:08;;;;;;;1.13;0.90;;;;;;;11.90;100.00;96522.72;5038620;28;20221;-69
2023/10/15 09:46:34;;;;;;;2.80;1.43;;;;;;;12.20;100.00;96517.34;5038238;28;20208;-69
2023/10/15 09:49:04;;;;;;;3.70;1.00;;;;;;;12.31;100.00;96523.00;5036982;28;20586;-69
2023/10/15 09:51:32;;;;;;;4.17;1.40;;;;;;;12.25;100.00;96521.06;5037027;28;20306;-69
2023/10/15 09:54:01;;;;;;;3.40;1.00;;;;;;;12.32;100.00;96516.72;5038053;28;20308;-69
2023/10/15 09:56:29;;;;;;;2.77;1.40;;;;;;;12.29;100.00;96516.25;5036564;28;20272;-69
2023/10/15 09:58:55;;;;;;;1.77;1.40;;;;;;;12.06;100.00;96526.03;5037752;28;20207;-69
2023/10/15 10:01:28;;;;;;;3.73;1.10;;;;;;;12.06;100.00;96519.97;5038333;28;20205;-69
2023/10/15 10:04:40;;;;;;;1.63;0.90;;;;;;;12.68;100.00;96517.63;5037739;28;20585;-69
2023/10/15 10:07:32;;;;;;;3.07;1.30;;;;;;;12.68;100.00;96519.44;5038245;28;20197;-69
2023/10/15 10:10:31;;;;;;;1.00;0.87;;;;;;;12.64;100.00;96526.09;5023049;28;20677;-69
2023/10/15 10:13:18;;;;;;;2.83;1.20;;;;;;;12.72;100.00;96528.69;5038500;28;20221;-69
2023/10/15 10:15:52;;;;;;;3.83;1.07;;;;;;;12.55;100.00;96527.19;5036505;28;20228;-69
2023/10/15 10:18:21;;;;;;;2.67;0.90;;;;;;;12.23;100.00;96528.38;5037099;28;20201;-69
2023/10/15 10:20:48;;;;;;;1.37;0.80;;;;;;;12.06;100.00;96533.16;5037524;28;20274;-69
2023/10/15 10:23:15;;;;;;;1.70;1.00;;;;;;;12.39;100.00;96520.25;5037736;28;20233;-69
2023/10/15 10:25:45;;;;;;;1.37;0.90;;;;;;;12.52;100.00;96517.81;5037497;28;20217;-69
2023/10/15 10:28:13;;;;;;;1.87;1.10;;;;;;;12.47;100.00;96514.88;5037397;28;20315;-69
2023/10/15 10:30:51;;;;;;;2.17;0.80;;;;;;;12.60;100.00;96511.59;5036323;28;20593;-69
2023/10/15 10:33:39;;;;;;;2.47;0.97;;;;;;;12.76;100.00;96500.88;5036944;28;20294;-69
2023/10/15 10:36:12;;;;;;;4.37;1.10;;;;;;;12.78;100.00;96512.91;5037395;28;20217;-69
2023/10/15 10:38:39;;;;;;;1.40;1.00;;;;;;;12.45;100.00;96516.09;5035517;28;20209;-69
2023/10/15 10:41:13;;;;;;;1.53;1.10;;;;;;;12.67;100.00;96521.28;5037786;28;20282;-69
2023/10/15 10:43:40;;;;;;;1.90;1.07;;;;;;;12.26;100.00;96513.97;5036741;28;21292;-69
2023/10/15 10:46:07;;;;;;;0.80;0.80;;;;;;;12.15;100.00;96510.94;5036724;28;21101;-69
2023/10/15 10:48:37;;;;;;;1.83;1.03;;;;;;;12.57;100.00;96518.09;5035288;28;20208;-69
2023/10/15 10:51:22;;;;;;;2.83;0.97;;;;;;;12.35;100.00;96515.53;5036368;28;20209;-70
2023/10/15 10:54:26;;;;;;;0.87;0.80;;;;;;;12.28;100.00;96520.72;5036521;28;20271;-69
2023/10/15 10:57:06;;;;;;;3.20;0.80;;;;;;;12.09;100.00;96516.94;5036812;28;20243;-69
2023/10/15 10:59:33;;;;;;;4.30;0.93;;;;;;;11.77;100.00;96520.72;5035723;28;20204;-69
2023/10/15 11:02:00;;;;;;;1.27;0.87;;;;;;;11.67;100.00;96519.28;5036578;28;20217;-69
2023/10/15 11:04:27;;;;;;;1.33;0.80;;;;;;;11.49;100.00;96526.63;5035883;28;20242;-69
2023/10/15 11:06:54;;;;;;;1.00;0.57;;;;;;;11.22;100.00;96523.69;5037043;28;20216;-69
2023/10/15 11:09:22;;;;;;;1.33;1.23;;;;;;;11.31;100.00;96523.47;5036753;28;20336;-69
2023/10/15 11:11:50;;;;;;;0.63;0.60;;;;;;;11.26;100.00;96523.16;5036479;28;20671;-68
2023/10/15 11:14:22;;;;;;;2.87;1.07;;;;;;;11.38;100.00;96539.41;5037551;28;20229;-69
2023/10/15 11:16:51;;;;;;;0.97;0.87;;;;;;;10.74;100.00;96560.81;5035556;28;20217;-71
2023/10/15 11:19:19;;;;;;;0.40;0.40;;;;;;;10.37;100.00;96565.03;5036252;28;20205;-71
2023/10/15 11:21:46;;;;;;;0.60;0.50;;;;;;;10.13;100.00;96559.00;5036088;28;20575;-72
2023/10/15 11:24:13;;;;;;;0.70;0.70;;;;;;;9.90;100.00;96550.09;5036829;28;20241;-71
2023/10/15 11:26:41;;;;;;;2.93;1.20;;;;;;;9.90;100.00;96547.47;5034786;28;20205;-70
2023/10/15 11:29:09;;;;;;;3.27;0.70;;;;;;;9.82;100.00;96542.22;5036721;28;20205;-70
2023/10/15 11:31:38;;;;;;;0.87;0.87;;;;;;;9.93;100.00;96531.34;5035745;28;20231;-70
2023/10/15 11:34:05;;;;;;;1.90;1.30;;;;;;;10.03;100.00;96518.84;5036211;28;20256;-70
2023/10/15 11:36:35;;;;;;;3.10;1.07;;;;;;;10.18;100.00;96525.09;5035269;28;20225;-70